createdAt,value
2023-03-05T00:03:04.538Z,1.60
2023-03-05T00:08:06.857Z,2.35
2023-03-05T00:13:08.637Z,2.03
2023-03-05T00:18:10.372Z,2.42
2023-03-05T00:23:12.275Z,1.73
2023-03-05T00:28:14.069Z,1.90
2023-03-05T00:33:16.191Z,1.48
2023-03-05T00:38:18.129Z,2.00
2023-03-05T00:43:20.065Z,2.00
2023-03-05T00:48:25.645Z,1.60
2023-03-05T00:53:27.447Z,1.80
2023-03-05T00:58:30.025Z,1.77
2023-03-05T01:03:33.501Z,2.67
2023-03-05T01:08:36.057Z,1.63
2023-03-05T01:13:38.853Z,2.03
2023-03-05T01:18:41.173Z,0.98
2023-03-05T01:23:42.955Z,1.48
2023-03-05T01:28:44.690Z,1.25
2023-03-05T01:33:49.582Z,1.45
2023-03-05T01:38:52.016Z,1.45
2023-03-05T01:43:54.009Z,2.13
2023-03-05T01:49:36.524Z,2.10
2023-03-05T01:54:49.960Z,1.27
2023-03-05T01:59:56.762Z,1.98
2023-03-05T02:05:08.817Z,1.25
2023-03-05T02:10:22.045Z,1.38
2023-03-05T02:15:24.534Z,1.33
2023-03-05T02:20:30.524Z,1.52
2023-03-05T02:25:32.420Z,1.85
2023-03-05T02:30:35.685Z,0.82
2023-03-05T02:35:38.244Z,1.55
2023-03-05T02:40:41.029Z,1.75
2023-03-05T02:45:43.539Z,1.67
2023-03-05T02:50:45.751Z,1.83
2023-03-05T02:55:48.532Z,1.65
2023-03-05T03:00:50.699Z,1.30
2023-03-05T03:05:52.536Z,1.67
2023-03-05T03:10:56.503Z,1.70
2023-03-05T03:16:18.754Z,1.60
2023-03-05T03:21:24.471Z,1.45
2023-03-05T03:26:26.758Z,1.00
2023-03-05T03:31:28.767Z,1.48
2023-03-05T03:36:30.623Z,1.90
2023-03-05T03:41:33.513Z,1.50
2023-03-05T03:46:35.465Z,1.80
2023-03-05T03:51:37.497Z,1.35
2023-03-05T03:56:39.359Z,1.70
2023-03-05T04:01:41.402Z,1.15
2023-03-05T04:06:43.989Z,0.90
2023-03-05T04:11:45.875Z,1.05
2023-03-05T04:16:47.871Z,0.63
2023-03-05T04:21:49.693Z,0.82
2023-03-05T04:26:51.490Z,0.93
2023-03-05T04:31:53.266Z,0.70
2023-03-05T04:37:21.087Z,0.80
2023-03-05T04:42:22.837Z,1.27
2023-03-05T04:47:24.711Z,0.70
2023-03-05T04:52:27.179Z,1.27
2023-03-05T04:57:28.984Z,1.00
2023-03-05T05:02:30.854Z,0.93
2023-03-05T05:07:32.898Z,1.50
2023-03-05T05:12:35.864Z,1.63
2023-03-05T05:17:37.683Z,1.50
2023-03-05T05:22:39.922Z,0.85
2023-03-05T05:27:41.806Z,1.40
2023-03-05T05:32:43.650Z,1.70
2023-03-05T05:37:45.760Z,1.80
2023-03-05T05:42:48.747Z,1.77
2023-03-05T05:47:51.783Z,1.27
2023-03-05T05:52:54.852Z,1.75
2023-03-05T05:57:58.483Z,1.45
2023-03-05T06:03:04.524Z,1.63
2023-03-05T06:08:07.021Z,0.93
2023-03-05T06:13:08.922Z,1.77
2023-03-05T06:18:10.782Z,1.45
2023-03-05T06:23:12.648Z,1.23
2023-03-05T06:28:14.537Z,1.30
2023-03-05T06:33:16.360Z,1.65
2023-03-05T06:38:18.353Z,1.20
2023-03-05T06:43:20.295Z,1.27
2023-03-05T06:48:22.186Z,0.82
2023-03-05T06:53:25.593Z,0.80
2023-03-05T06:58:27.453Z,0.65
2023-03-05T07:03:29.283Z,0.95
2023-03-05T07:08:32.201Z,0.90
2023-03-05T07:13:33.945Z,1.08
2023-03-05T07:18:35.905Z,0.90
2023-03-05T07:23:37.960Z,0.80
2023-03-05T07:28:40.097Z,1.08
2023-03-05T07:33:42.265Z,1.00
2023-03-05T07:38:45.447Z,1.08
2023-03-05T07:43:48.969Z,0.90
2023-03-05T07:48:50.958Z,1.30
2023-03-05T07:53:55.268Z,1.30
2023-03-05T07:58:57.245Z,0.65
2023-03-05T08:03:59.205Z,0.80
2023-03-05T08:09:01.195Z,0.90
2023-03-05T08:14:04.662Z,1.13
2023-03-05T08:19:06.609Z,0.88
2023-03-05T08:24:12.320Z,1.23
2023-03-05T08:29:14.220Z,0.60
2023-03-05T08:34:16.158Z,0.90
2023-03-05T08:39:18.991Z,0.82
2023-03-05T08:44:21.206Z,1.05
2023-03-05T08:49:23.561Z,1.05
2023-03-05T08:54:25.640Z,0.75
2023-03-05T08:59:27.571Z,1.30
2023-03-05T09:04:29.460Z,1.50
2023-03-05T09:09:33.072Z,1.40
2023-03-05T09:14:35.034Z,1.50
2023-03-05T09:19:37.282Z,1.05
2023-03-05T09:24:39.577Z,1.70
2023-03-05T09:29:43.148Z,1.30
2023-03-05T09:34:45.526Z,1.38
2023-03-05T09:39:47.568Z,1.13
2023-03-05T09:45:15.735Z,1.40
2023-03-05T09:50:39.081Z,1.42
2023-03-05T09:55:47.327Z,1.63
2023-03-05T10:00:55.844Z,1.42
2023-03-05T10:06:18.891Z,1.75
2023-03-05T10:11:43.691Z,2.38
2023-03-05T10:16:51.312Z,2.30
2023-03-05T10:22:21.063Z,1.52
2023-03-05T10:28:05.941Z,1.35
2023-03-05T10:33:45.133Z,1.90
2023-03-05T10:39:09.749Z,2.08
2023-03-05T10:44:20.844Z,1.83
2023-03-05T10:49:32.467Z,1.67
2023-03-05T10:54:36.155Z,1.70
2023-03-05T10:59:38.173Z,1.27
2023-03-05T11:04:41.340Z,1.80
2023-03-05T11:09:53.848Z,1.77
2023-03-05T11:15:09.614Z,2.15
2023-03-05T11:20:26.741Z,2.28
2023-03-05T11:25:29.035Z,2.30
2023-03-05T11:30:37.623Z,2.67
2023-03-05T11:35:42.225Z,2.20
2023-03-05T11:40:48.768Z,2.72
2023-03-05T11:45:55.933Z,2.65
2023-03-05T11:51:07.561Z,2.38
2023-03-05T11:56:30.394Z,3.45
2023-03-05T12:01:36.347Z,5.00
2023-03-05T12:06:44.608Z,3.55
2023-03-05T12:11:51.768Z,2.67
2023-03-05T12:17:11.915Z,3.17
2023-03-05T12:22:22.174Z,3.38
2023-03-05T12:27:36.958Z,2.90
2023-03-05T12:32:46.464Z,2.75
2023-03-05T12:37:51.674Z,2.58
2023-03-05T12:42:53.635Z,3.00
2023-03-05T12:47:55.521Z,2.30
2023-03-05T12:52:59.270Z,2.42
2023-03-05T12:58:13.685Z,2.22
2023-03-05T13:03:26.906Z,2.10
2023-03-05T13:08:31.804Z,2.42
2023-03-05T13:13:38.010Z,1.77
2023-03-05T13:18:41.378Z,2.25
2023-03-05T13:23:58.467Z,1.60
2023-03-05T13:29:22.175Z,1.95
2023-03-05T13:34:46.099Z,3.40
2023-03-05T13:39:54.196Z,2.67
2023-03-05T13:45:08.012Z,1.98
2023-03-05T13:50:25.170Z,2.20
2023-03-05T13:55:27.308Z,2.00
2023-03-05T14:00:36.091Z,2.05
2023-03-05T14:05:44.852Z,1.55
2023-03-05T14:10:47.058Z,3.75
2023-03-05T14:16:04.155Z,2.40
2023-03-05T14:21:09.017Z,2.05
2023-03-05T14:26:29.387Z,1.75
2023-03-05T14:31:38.976Z,1.70
2023-03-05T14:36:49.867Z,2.38
2023-03-05T14:41:51.863Z,1.92
2023-03-05T14:46:53.745Z,1.83
2023-03-05T14:51:55.658Z,1.55
2023-03-05T14:56:57.477Z,2.20
2023-03-05T15:01:59.251Z,2.20
2023-03-05T15:07:01.223Z,1.40
2023-03-05T15:12:03.093Z,2.63
2023-03-05T15:17:05.022Z,2.05
2023-03-05T15:22:07.009Z,1.67
2023-03-05T15:27:09.082Z,1.70
2023-03-05T15:32:11.126Z,1.60
2023-03-05T15:37:13.235Z,2.25
2023-03-05T15:42:15.216Z,2.05
2023-03-05T15:47:17.056Z,1.52
2023-03-05T15:52:19.031Z,1.90
2023-03-05T15:57:24.534Z,1.10
2023-03-05T16:02:26.603Z,1.77
2023-03-05T16:07:29.564Z,1.58
2023-03-05T16:12:43.301Z,1.60
2023-03-05T16:17:48.841Z,1.63
2023-03-05T16:22:51.208Z,2.13
2023-03-05T16:27:53.250Z,1.77
2023-03-05T16:32:55.295Z,1.90
2023-03-05T16:37:57.221Z,2.22
2023-03-05T16:42:59.124Z,1.85
2023-03-05T16:48:00.938Z,2.08
2023-03-05T16:53:03.180Z,2.00
2023-03-05T16:58:05.778Z,1.80
2023-03-05T17:03:09.350Z,1.80
2023-03-05T17:08:11.237Z,2.10
2023-03-05T17:13:13.005Z,2.05
2023-03-05T17:18:14.794Z,2.20
2023-03-05T17:23:16.685Z,3.53
2023-03-05T17:28:18.635Z,4.95
2023-03-05T17:33:20.528Z,4.10
2023-03-05T17:38:23.284Z,3.45
2023-03-05T17:43:25.072Z,3.42
2023-03-05T17:48:27.630Z,5.45
2023-03-05T17:53:29.361Z,3.03
2023-03-05T17:58:31.116Z,8.30
2023-03-05T18:03:33.451Z,6.28
2023-03-05T18:08:35.193Z,4.60
2023-03-05T18:13:37.293Z,3.00
2023-03-05T18:18:39.121Z,2.58
2023-03-05T18:23:40.978Z,4.25
2023-03-05T18:28:42.823Z,2.97
2023-03-05T18:33:44.993Z,3.72
2023-03-05T18:38:46.937Z,3.15
2023-03-05T18:43:48.985Z,5.53
2023-03-05T18:48:50.807Z,3.95
2023-03-05T18:53:55.203Z,3.05
2023-03-05T18:58:58.644Z,3.13
2023-03-05T19:04:00.922Z,4.00
2023-03-05T19:09:08.699Z,4.65
2023-03-05T19:14:10.815Z,4.65
2023-03-05T19:19:22.782Z,7.20
2023-03-05T19:24:26.896Z,4.88
2023-03-05T19:29:33.130Z,3.83
2023-03-05T19:34:35.793Z,3.05
2023-03-05T19:39:38.277Z,2.83
2023-03-05T19:44:40.068Z,3.35
2023-03-05T19:49:42.255Z,2.42
2023-03-05T19:54:44.085Z,2.83
2023-03-05T19:59:47.087Z,3.15
2023-03-05T20:04:49.791Z,2.92
2023-03-05T20:09:55.607Z,2.60
2023-03-05T20:14:57.646Z,2.75
2023-03-05T20:20:00.263Z,2.55
2023-03-05T20:25:02.328Z,2.70
2023-03-05T20:30:07.173Z,2.03
2023-03-05T20:35:13.904Z,2.13
2023-03-05T20:40:17.038Z,2.60
2023-03-05T20:45:18.935Z,2.30
2023-03-05T20:50:20.984Z,2.58
2023-03-05T20:55:23.738Z,2.28
2023-03-05T21:00:26.670Z,1.98
2023-03-05T21:05:30.377Z,1.90
2023-03-05T21:10:32.828Z,2.00
2023-03-05T21:15:34.626Z,2.05
2023-03-05T21:20:36.531Z,2.50
2023-03-05T21:25:38.353Z,2.67
2023-03-05T21:30:46.861Z,2.25
2023-03-05T21:35:49.604Z,1.85
2023-03-05T21:40:54.055Z,2.33
2023-03-05T21:45:57.476Z,1.30
2023-03-05T21:50:59.501Z,1.77
2023-03-05T21:56:21.135Z,1.85
2023-03-05T22:01:23.061Z,2.28
2023-03-05T22:06:24.905Z,2.03
2023-03-05T22:11:30.191Z,1.70
2023-03-05T22:16:32.030Z,2.55
2023-03-05T22:21:33.881Z,2.30
2023-03-05T22:26:38.360Z,2.60
2023-03-05T22:31:41.077Z,1.42
2023-03-05T22:36:42.974Z,1.90
2023-03-05T22:41:45.173Z,1.80
2023-03-05T22:46:47.187Z,1.38
2023-03-05T22:51:49.025Z,2.17
2023-03-05T22:56:50.896Z,1.98
2023-03-05T23:01:52.632Z,1.80
2023-03-05T23:06:55.927Z,1.88
2023-03-05T23:11:58.053Z,2.00
2023-03-05T23:17:00.059Z,2.08
2023-03-05T23:22:01.855Z,2.30
2023-03-05T23:27:06.045Z,2.55
2023-03-05T23:32:08.040Z,1.95
2023-03-05T23:37:09.999Z,2.30
2023-03-05T23:42:11.935Z,2.38
2023-03-05T23:47:13.804Z,2.47
2023-03-05T23:52:15.795Z,3.00
2023-03-05T23:57:17.681Z,2.60
